createdAt,value
2023-01-24T00:00:31.844Z,6.61
2023-01-24T00:01:33.351Z,6.63
2023-01-24T00:02:34.838Z,6.65
2023-01-24T00:03:36.408Z,6.66
2023-01-24T00:04:38.051Z,6.68
2023-01-24T00:05:40.203Z,6.71
2023-01-24T00:06:41.769Z,6.70
2023-01-24T00:07:43.321Z,6.70
2023-01-24T00:08:44.775Z,6.71
2023-01-24T00:09:46.274Z,6.69
2023-01-24T00:10:48.154Z,6.72
2023-01-24T00:11:49.704Z,6.73
2023-01-24T00:12:51.232Z,6.74
2023-01-24T00:13:52.755Z,6.71
2023-01-24T00:14:54.631Z,6.70
2023-01-24T00:16:06.376Z,6.73
2023-01-24T00:17:10.815Z,6.72
2023-01-24T00:18:12.584Z,6.76
2023-01-24T00:19:14.079Z,6.73
2023-01-24T00:20:15.762Z,6.74
2023-01-24T00:21:20.611Z,6.77
2023-01-24T00:22:22.107Z,6.72
2023-01-24T00:23:23.630Z,6.72
2023-01-24T00:24:25.215Z,6.73
2023-01-24T00:25:26.643Z,6.71
2023-01-24T00:26:28.105Z,6.74
2023-01-24T00:27:32.402Z,6.67
2023-01-24T00:28:34.047Z,6.67
2023-01-24T00:29:35.573Z,6.68
2023-01-24T00:30:37.060Z,6.68
2023-01-24T00:31:38.654Z,6.68
2023-01-24T00:32:41.077Z,6.66
2023-01-24T00:33:42.611Z,6.69
2023-01-24T00:34:44.117Z,6.69
2023-01-24T00:35:45.587Z,6.68
2023-01-24T00:36:47.051Z,6.66
2023-01-24T00:37:48.620Z,6.67
2023-01-24T00:38:50.116Z,6.71
2023-01-24T00:39:51.588Z,6.73
2023-01-24T00:40:53.113Z,6.69
2023-01-24T00:41:54.598Z,6.66
2023-01-24T00:42:56.088Z,6.72
2023-01-24T00:43:57.548Z,6.68
2023-01-24T00:44:59.044Z,6.66
2023-01-24T00:46:01.373Z,6.65
2023-01-24T00:47:02.894Z,6.68
2023-01-24T00:48:04.976Z,6.68
2023-01-24T00:49:06.409Z,6.67
2023-01-24T00:50:08.705Z,6.68
2023-01-24T00:51:11.433Z,6.69
2023-01-24T00:52:12.939Z,6.66
2023-01-24T00:53:14.558Z,6.67
2023-01-24T00:54:16.057Z,6.68
2023-01-24T00:55:17.499Z,6.68
2023-01-24T00:56:18.992Z,6.68
2023-01-24T00:57:22.731Z,6.71
2023-01-24T00:58:24.928Z,6.71
2023-01-24T00:59:26.420Z,6.74
2023-01-24T01:00:27.996Z,6.75
2023-01-24T01:01:29.468Z,6.75
2023-01-24T01:02:30.998Z,6.77
2023-01-24T01:03:32.601Z,6.72
2023-01-24T01:04:34.108Z,6.72
2023-01-24T01:05:35.629Z,6.71
2023-01-24T01:06:38.276Z,6.73
2023-01-24T01:07:39.736Z,6.71
2023-01-24T01:08:41.328Z,6.71
2023-01-24T01:09:43.129Z,6.71
2023-01-24T01:10:44.673Z,6.73
2023-01-24T01:11:46.176Z,6.73
2023-01-24T01:12:47.703Z,6.72
2023-01-24T01:13:49.337Z,6.74
2023-01-24T01:14:51.047Z,6.75
2023-01-24T01:15:52.626Z,6.73
2023-01-24T01:16:54.193Z,6.76
2023-01-24T01:17:57.745Z,6.78
2023-01-24T01:19:00.168Z,6.77
2023-01-24T01:20:01.692Z,6.77
2023-01-24T01:21:03.650Z,6.77
2023-01-24T01:22:05.143Z,6.75
2023-01-24T01:23:06.678Z,6.76
2023-01-24T01:24:08.250Z,6.77
2023-01-24T01:25:09.768Z,6.78
2023-01-24T01:26:20.771Z,6.74
2023-01-24T01:27:22.487Z,6.73
2023-01-24T01:28:24.002Z,6.70
2023-01-24T01:29:25.547Z,6.70
2023-01-24T01:30:27.027Z,6.70
2023-01-24T01:31:28.649Z,6.67
2023-01-24T01:32:30.240Z,6.69
2023-01-24T01:33:31.742Z,6.66
2023-01-24T01:34:33.276Z,6.66
2023-01-24T01:35:34.823Z,6.65
2023-01-24T01:36:36.437Z,6.66
2023-01-24T01:37:37.873Z,6.64
2023-01-24T01:38:39.328Z,6.68
2023-01-24T01:39:41.350Z,6.66
2023-01-24T01:40:42.992Z,6.64
2023-01-24T01:41:44.687Z,6.65
2023-01-24T01:42:49.250Z,6.59
2023-01-24T01:44:09.128Z,6.63
2023-01-24T01:45:29.456Z,6.67
2023-01-24T01:46:31.482Z,6.67
2023-01-24T01:47:34.982Z,6.64
2023-01-24T01:48:40.708Z,6.63
2023-01-24T01:49:47.426Z,6.59
2023-01-24T01:51:02.986Z,6.55
2023-01-24T01:52:04.698Z,6.57
2023-01-24T01:53:06.190Z,6.53
2023-01-24T01:54:27.971Z,6.55
2023-01-24T01:55:31.863Z,6.54
2023-01-24T01:56:40.393Z,6.58
2023-01-24T01:57:41.936Z,6.53
2023-01-24T01:58:43.444Z,6.58
2023-01-24T01:59:47.270Z,6.59
2023-01-24T02:00:51.416Z,6.59
2023-01-24T02:01:53.604Z,6.60
2023-01-24T02:03:16.406Z,6.56
2023-01-24T02:04:20.384Z,6.54
2023-01-24T02:05:23.178Z,6.56
2023-01-24T02:06:42.864Z,6.56
2023-01-24T02:07:45.512Z,6.57
2023-01-24T02:08:47.042Z,6.58
2023-01-24T02:09:49.419Z,6.61
2023-01-24T02:11:09.424Z,6.58
2023-01-24T02:12:24.008Z,6.59
2023-01-24T02:13:25.521Z,6.62
2023-01-24T02:14:56.329Z,6.63
2023-01-24T02:16:03.782Z,6.61
2023-01-24T02:17:05.320Z,6.59
2023-01-24T02:18:07.303Z,6.56
2023-01-24T02:19:09.194Z,6.52
2023-01-24T02:20:22.625Z,6.54
2023-01-24T02:21:24.106Z,6.55
2023-01-24T02:22:34.622Z,6.59
2023-01-24T02:23:47.918Z,6.60
2023-01-24T02:24:53.347Z,6.58
2023-01-24T02:26:03.560Z,6.57
2023-01-24T02:27:05.006Z,6.55
2023-01-24T02:28:06.623Z,6.54
2023-01-24T02:29:09.633Z,6.54
2023-01-24T02:30:11.376Z,6.56
2023-01-24T02:31:12.960Z,6.56
2023-01-24T02:32:16.098Z,6.57
2023-01-24T02:33:18.450Z,6.55
2023-01-24T02:34:19.975Z,6.53
2023-01-24T02:35:25.663Z,6.55
2023-01-24T02:36:29.420Z,6.52
2023-01-24T02:37:31.277Z,6.55
2023-01-24T02:38:32.744Z,6.54
2023-01-24T02:39:36.791Z,6.49
2023-01-24T02:40:38.316Z,6.49
2023-01-24T02:41:41.614Z,6.49
2023-01-24T02:42:43.128Z,6.48
2023-01-24T02:43:45.844Z,6.47
2023-01-24T02:45:06.139Z,6.47
2023-01-24T02:46:07.684Z,6.51
2023-01-24T02:47:09.200Z,6.56
2023-01-24T02:48:10.694Z,6.57
2023-01-24T02:49:12.258Z,6.57
2023-01-24T02:50:13.784Z,6.55
2023-01-24T02:51:33.749Z,6.55
2023-01-24T02:52:54.112Z,6.49
2023-01-24T02:53:55.600Z,6.52
2023-01-24T02:54:57.124Z,6.52
2023-01-24T02:56:21.439Z,6.56
2023-01-24T02:57:41.672Z,6.54
2023-01-24T02:58:43.654Z,6.52
2023-01-24T02:59:45.192Z,6.54
2023-01-24T03:00:47.296Z,6.48
2023-01-24T03:01:50.508Z,6.48
2023-01-24T03:02:52.592Z,6.46
2023-01-24T03:03:54.213Z,6.46
2023-01-24T03:04:56.484Z,6.51
2023-01-24T03:05:58.992Z,6.52
2023-01-24T03:07:09.926Z,6.52
2023-01-24T03:08:14.049Z,6.53
2023-01-24T03:09:34.450Z,6.56
2023-01-24T03:10:37.790Z,6.54
2023-01-24T03:11:39.279Z,6.49
2023-01-24T03:12:59.644Z,6.50
2023-01-24T03:14:19.986Z,6.51
2023-01-24T03:15:40.294Z,6.47
2023-01-24T03:17:01.735Z,6.43
2023-01-24T03:18:22.166Z,6.46
2023-01-24T03:19:42.336Z,6.49
2023-01-24T03:21:05.620Z,6.48
2023-01-24T03:22:25.826Z,6.49
2023-01-24T03:23:46.583Z,6.49
2023-01-24T03:25:06.778Z,6.51
2023-01-24T03:26:27.032Z,6.47
2023-01-24T03:27:47.076Z,6.49
2023-01-24T03:29:12.928Z,6.49
2023-01-24T03:30:32.890Z,6.50
2023-01-24T03:31:53.668Z,6.48
2023-01-24T03:33:20.440Z,6.51
2023-01-24T03:34:34.347Z,6.53
2023-01-24T03:35:36.418Z,6.53
2023-01-24T03:36:38.116Z,6.50
2023-01-24T03:37:58.453Z,6.52
2023-01-24T03:39:20.506Z,6.52
2023-01-24T03:40:22.142Z,6.50
2023-01-24T03:41:23.737Z,6.53
2023-01-24T03:42:26.688Z,6.51
2023-01-24T03:43:28.760Z,6.52
2023-01-24T03:44:30.426Z,6.53
2023-01-24T03:45:32.996Z,6.55
2023-01-24T03:46:40.985Z,6.55
2023-01-24T03:47:46.653Z,6.56
2023-01-24T03:48:48.189Z,6.52
2023-01-24T03:50:08.690Z,6.52
2023-01-24T03:51:28.812Z,6.57
2023-01-24T03:52:30.451Z,6.58
2023-01-24T03:53:35.675Z,6.54
2023-01-24T03:54:37.686Z,6.54
2023-01-24T03:55:41.519Z,6.54
2023-01-24T03:56:43.085Z,6.54
2023-01-24T03:57:46.617Z,6.52
2023-01-24T03:58:49.905Z,6.46
2023-01-24T03:59:51.766Z,6.45
2023-01-24T04:00:53.687Z,6.45
2023-01-24T04:02:21.648Z,6.50
2023-01-24T04:03:23.267Z,6.45
2023-01-24T04:04:24.768Z,6.42
2023-01-24T04:05:26.291Z,6.44
2023-01-24T04:06:27.845Z,6.45
2023-01-24T04:07:30.078Z,6.47
2023-01-24T04:08:35.432Z,6.47
2023-01-24T04:09:37.117Z,6.46
2023-01-24T04:10:38.694Z,6.45
2023-01-24T04:11:40.187Z,6.48
2023-01-24T04:12:47.860Z,6.48
2023-01-24T04:13:50.461Z,6.53
2023-01-24T04:14:52.306Z,6.48
2023-01-24T04:15:54.047Z,6.51
2023-01-24T04:17:06.016Z,6.53
2023-01-24T04:18:15.213Z,6.58
2023-01-24T04:19:16.760Z,6.60
2023-01-24T04:20:18.571Z,6.59
2023-01-24T04:21:20.172Z,6.58
2023-01-24T04:22:21.850Z,6.59
2023-01-24T04:23:23.474Z,6.57
2023-01-24T04:24:25.127Z,6.61
2023-01-24T04:25:26.597Z,6.60
2023-01-24T04:26:28.300Z,6.53
2023-01-24T04:27:30.493Z,6.55
2023-01-24T04:28:45.554Z,6.56
2023-01-24T04:29:47.136Z,6.53
2023-01-24T04:30:49.354Z,6.48
2023-01-24T04:32:06.368Z,6.51
2023-01-24T04:33:34.384Z,6.51
2023-01-24T04:34:35.939Z,6.49
2023-01-24T04:35:38.349Z,6.54
2023-01-24T04:36:40.548Z,6.60
2023-01-24T04:37:42.808Z,6.61
2023-01-24T04:38:45.524Z,6.59
2023-01-24T04:39:52.151Z,6.62
2023-01-24T04:41:00.546Z,6.67
2023-01-24T04:42:04.408Z,6.68
2023-01-24T04:43:06.025Z,6.70
2023-01-24T04:44:08.676Z,6.69
2023-01-24T04:45:10.648Z,6.69
2023-01-24T04:46:12.285Z,6.66
2023-01-24T04:47:34.082Z,6.62
2023-01-24T04:48:36.087Z,6.63
2023-01-24T04:49:37.730Z,6.62
2023-01-24T04:50:40.726Z,6.64
2023-01-24T04:51:43.995Z,6.65
2023-01-24T04:52:50.489Z,6.62
2023-01-24T04:53:52.404Z,6.60
2023-01-24T04:54:57.587Z,6.57
2023-01-24T04:56:02.439Z,6.59
2023-01-24T04:57:07.143Z,6.56
2023-01-24T04:58:09.130Z,6.54
2023-01-24T04:59:13.708Z,6.55
2023-01-24T05:00:18.010Z,6.55
2023-01-24T05:01:20.265Z,6.52
2023-01-24T05:02:33.975Z,6.48
2023-01-24T05:03:36.692Z,6.45
2023-01-24T05:04:38.800Z,6.45
2023-01-24T05:05:40.312Z,6.45
2023-01-24T05:06:41.912Z,6.44
2023-01-24T05:07:43.437Z,6.43
2023-01-24T05:08:49.740Z,6.46
2023-01-24T05:09:52.447Z,6.43
2023-01-24T05:10:53.952Z,6.44
2023-01-24T05:11:55.507Z,6.42
2023-01-24T05:12:59.535Z,6.42
2023-01-24T05:14:01.174Z,6.39
2023-01-24T05:15:02.805Z,6.35
2023-01-24T05:16:04.707Z,6.40
2023-01-24T05:17:06.545Z,6.40
2023-01-24T05:18:09.937Z,6.40
2023-01-24T05:19:11.603Z,6.43
2023-01-24T05:20:13.352Z,6.42
2023-01-24T05:21:15.543Z,6.35
2023-01-24T05:22:17.470Z,6.39
2023-01-24T05:23:19.205Z,6.39
2023-01-24T05:24:23.434Z,6.37
2023-01-24T05:25:25.172Z,6.38
2023-01-24T05:26:28.118Z,6.35
2023-01-24T05:27:29.767Z,6.40
2023-01-24T05:28:36.254Z,6.43
2023-01-24T05:29:37.800Z,6.42
2023-01-24T05:30:39.605Z,6.36
2023-01-24T05:31:52.683Z,6.35
2023-01-24T05:32:57.348Z,6.36
2023-01-24T05:33:58.849Z,6.40
2023-01-24T05:35:00.421Z,6.37
2023-01-24T05:36:02.478Z,6.35
2023-01-24T05:37:07.760Z,6.36
2023-01-24T05:38:11.305Z,6.37
2023-01-24T05:39:15.840Z,6.37
2023-01-24T05:40:19.169Z,6.37
2023-01-24T05:41:21.478Z,6.33
2023-01-24T05:42:25.362Z,6.31
2023-01-24T05:43:29.735Z,6.35
2023-01-24T05:44:31.739Z,6.38
2023-01-24T05:45:35.867Z,6.37
2023-01-24T05:46:38.851Z,6.41
2023-01-24T05:47:50.580Z,6.43
2023-01-24T05:48:53.961Z,6.42
2023-01-24T05:49:55.524Z,6.42
2023-01-24T05:51:00.471Z,6.40
2023-01-24T05:52:01.964Z,6.40
2023-01-24T05:53:20.440Z,6.39
2023-01-24T05:54:21.972Z,6.33
2023-01-24T05:55:32.421Z,6.33
2023-01-24T05:56:34.261Z,6.38
2023-01-24T05:57:38.114Z,6.39
2023-01-24T05:59:02.945Z,6.41
2023-01-24T06:00:05.293Z,6.39
2023-01-24T06:01:19.451Z,6.41
2023-01-24T06:02:21.381Z,6.37
2023-01-24T06:03:23.001Z,6.37
2023-01-24T06:04:25.924Z,6.37
2023-01-24T06:05:27.486Z,6.40
2023-01-24T06:06:29.121Z,6.36
2023-01-24T06:07:30.948Z,6.35
2023-01-24T06:08:32.607Z,6.37
2023-01-24T06:09:34.739Z,6.39
2023-01-24T06:10:36.900Z,6.42
2023-01-24T06:11:41.430Z,6.41
2023-01-24T06:12:48.226Z,6.44
2023-01-24T06:13:49.913Z,6.45
2023-01-24T06:14:51.456Z,6.44
2023-01-24T06:15:52.984Z,6.49
2023-01-24T06:16:55.468Z,6.53
2023-01-24T06:17:56.985Z,6.48
2023-01-24T06:18:58.582Z,6.47
2023-01-24T06:20:00.736Z,6.47
2023-01-24T06:21:16.627Z,6.47
2023-01-24T06:22:21.103Z,6.46
2023-01-24T06:23:25.243Z,6.45
2023-01-24T06:24:30.221Z,6.49
2023-01-24T06:25:44.346Z,6.51
2023-01-24T06:26:46.120Z,6.51
2023-01-24T06:27:48.300Z,6.51
2023-01-24T06:28:49.935Z,6.50
2023-01-24T06:29:51.527Z,6.54
2023-01-24T06:31:06.289Z,6.52
2023-01-24T06:32:26.736Z,6.55
2023-01-24T06:33:31.262Z,6.58
2023-01-24T06:34:42.910Z,6.61
2023-01-24T06:35:56.260Z,6.63
2023-01-24T06:37:16.406Z,6.65
2023-01-24T06:38:21.540Z,6.64
2023-01-24T06:39:23.638Z,6.64
2023-01-24T06:40:25.777Z,6.64
2023-01-24T06:41:27.384Z,6.63
2023-01-24T06:42:29.058Z,6.65
2023-01-24T06:43:30.703Z,6.68
2023-01-24T06:44:32.423Z,6.69
2023-01-24T06:45:34.062Z,6.72
2023-01-24T06:46:35.593Z,6.71
2023-01-24T06:47:37.142Z,6.70
2023-01-24T06:48:38.758Z,6.69
2023-01-24T06:49:40.318Z,6.67
2023-01-24T06:50:41.869Z,6.67
2023-01-24T06:51:43.345Z,6.65
2023-01-24T06:52:48.512Z,6.63
2023-01-24T06:53:50.029Z,6.63
2023-01-24T06:54:51.490Z,6.62
2023-01-24T06:55:53.009Z,6.63
2023-01-24T06:56:54.555Z,6.63
2023-01-24T06:57:56.610Z,6.63
2023-01-24T06:58:58.086Z,6.63
2023-01-24T06:59:59.629Z,6.56
2023-01-24T07:01:01.115Z,6.58
2023-01-24T07:02:02.781Z,6.60
2023-01-24T07:03:07.208Z,6.56
2023-01-24T07:04:08.875Z,6.52
2023-01-24T07:05:10.670Z,6.57
2023-01-24T07:06:12.182Z,6.53
2023-01-24T07:07:13.732Z,6.49
2023-01-24T07:08:18.415Z,6.53
2023-01-24T07:09:22.321Z,6.56
2023-01-24T07:10:23.854Z,6.60
2023-01-24T07:11:25.451Z,6.60
2023-01-24T07:12:26.944Z,6.59
2023-01-24T07:13:28.440Z,6.61
2023-01-24T07:14:29.926Z,6.60
2023-01-24T07:15:31.388Z,6.62
2023-01-24T07:16:32.890Z,6.59
2023-01-24T07:17:38.656Z,6.60
2023-01-24T07:18:40.831Z,6.62
2023-01-24T07:19:42.435Z,6.60
2023-01-24T07:20:44.291Z,6.62
2023-01-24T07:21:47.347Z,6.64
2023-01-24T07:22:50.624Z,6.65
2023-01-24T07:23:52.410Z,6.60
2023-01-24T07:24:53.876Z,6.54
2023-01-24T07:25:56.228Z,6.52
2023-01-24T07:26:58.421Z,6.50
2023-01-24T07:28:00.404Z,6.53
2023-01-24T07:29:01.871Z,6.53
2023-01-24T07:30:03.575Z,6.57
2023-01-24T07:31:05.286Z,6.53
2023-01-24T07:32:07.000Z,6.50
2023-01-24T07:33:08.600Z,6.52
2023-01-24T07:34:10.310Z,6.54
2023-01-24T07:35:11.849Z,6.55
2023-01-24T07:36:14.237Z,6.57
2023-01-24T07:37:17.506Z,6.56
2023-01-24T07:38:19.309Z,6.58
2023-01-24T07:39:20.934Z,6.58
2023-01-24T07:40:22.491Z,6.56
2023-01-24T07:41:24.242Z,6.50
2023-01-24T07:42:28.286Z,6.50
2023-01-24T07:43:29.777Z,6.47
2023-01-24T07:44:31.238Z,6.49
2023-01-24T07:45:33.843Z,6.51
2023-01-24T07:46:35.596Z,6.54
2023-01-24T07:47:37.134Z,6.56
2023-01-24T07:48:38.672Z,6.56
2023-01-24T07:49:40.157Z,6.53
2023-01-24T07:50:41.672Z,6.58
2023-01-24T07:51:43.241Z,6.61
2023-01-24T07:52:44.754Z,6.61
2023-01-24T07:53:47.674Z,6.62
2023-01-24T07:54:49.200Z,6.60
2023-01-24T07:56:01.501Z,6.57
2023-01-24T07:57:04.073Z,6.60
2023-01-24T07:58:05.780Z,6.60
2023-01-24T07:59:07.346Z,6.56
2023-01-24T08:00:09.086Z,6.58
2023-01-24T08:01:17.013Z,6.56
2023-01-24T08:02:18.508Z,6.56
2023-01-24T08:03:20.101Z,6.57
2023-01-24T08:04:21.588Z,6.58
2023-01-24T08:05:23.125Z,6.58
2023-01-24T08:06:24.841Z,6.58
2023-01-24T08:07:27.607Z,6.60
2023-01-24T08:08:29.080Z,6.55
2023-01-24T08:09:31.018Z,6.58
2023-01-24T08:10:32.595Z,6.58
2023-01-24T08:11:34.208Z,6.59
2023-01-24T08:12:35.757Z,6.64
2023-01-24T08:13:37.280Z,6.63
2023-01-24T08:14:39.026Z,6.67
2023-01-24T08:15:40.485Z,6.65
2023-01-24T08:16:42.043Z,6.64
2023-01-24T08:17:43.595Z,6.60
2023-01-24T08:18:45.778Z,6.61
2023-01-24T08:19:56.358Z,6.59
2023-01-24T08:20:59.229Z,6.62
2023-01-24T08:22:00.894Z,6.63
2023-01-24T08:23:02.413Z,6.65
2023-01-24T08:24:03.929Z,6.63
2023-01-24T08:25:05.603Z,6.66
2023-01-24T08:26:07.532Z,6.66
2023-01-24T08:27:09.024Z,6.64
2023-01-24T08:28:10.539Z,6.63
2023-01-24T08:29:11.993Z,6.68
2023-01-24T08:30:15.332Z,6.70
2023-01-24T08:31:18.078Z,6.72
2023-01-24T08:32:19.621Z,6.71
2023-01-24T08:33:21.262Z,6.71
2023-01-24T08:34:22.726Z,6.69
2023-01-24T08:35:24.601Z,6.71
2023-01-24T08:36:26.402Z,6.73
2023-01-24T08:37:28.125Z,6.74
2023-01-24T08:38:29.608Z,6.75
2023-01-24T08:39:31.109Z,6.75
2023-01-24T08:40:38.276Z,6.77
2023-01-24T08:41:49.371Z,6.78
2023-01-24T08:42:50.847Z,6.82
2023-01-24T08:43:55.272Z,6.84
2023-01-24T08:44:56.758Z,6.86
2023-01-24T08:45:58.421Z,6.89
2023-01-24T08:47:00.049Z,6.92
2023-01-24T08:48:01.613Z,6.96
2023-01-24T08:49:03.547Z,6.98
2023-01-24T08:50:05.247Z,6.98
2023-01-24T08:51:07.861Z,7.00
2023-01-24T08:52:09.445Z,7.03
2023-01-24T08:53:10.994Z,7.04
2023-01-24T08:54:12.628Z,7.06
2023-01-24T08:55:14.259Z,7.08
2023-01-24T08:56:15.838Z,7.09
2023-01-24T08:57:17.354Z,7.09
2023-01-24T08:58:18.877Z,7.11
2023-01-24T08:59:20.440Z,7.11
2023-01-24T09:00:21.932Z,7.09
2023-01-24T09:01:23.528Z,7.02
2023-01-24T09:02:25.092Z,7.12
2023-01-24T09:03:28.065Z,7.13
2023-01-24T09:04:31.771Z,7.14
2023-01-24T09:05:33.415Z,7.14
2023-01-24T09:06:34.976Z,7.12
2023-01-24T09:07:37.460Z,7.10
2023-01-24T09:08:39.044Z,7.13
2023-01-24T09:09:40.555Z,7.14
2023-01-24T09:10:42.102Z,7.14
2023-01-24T09:11:43.590Z,7.14
2023-01-24T09:12:45.105Z,7.15
2023-01-24T09:13:46.593Z,7.14
2023-01-24T09:14:48.209Z,7.16
2023-01-24T09:15:49.678Z,7.19
2023-01-24T09:16:51.233Z,7.18
2023-01-24T09:17:52.824Z,7.16
2023-01-24T09:18:54.959Z,7.14
2023-01-24T09:19:56.477Z,7.15
2023-01-24T09:21:00.739Z,7.17
2023-01-24T09:22:02.247Z,7.20
2023-01-24T09:23:13.661Z,7.23
2023-01-24T09:24:15.294Z,7.26
2023-01-24T09:25:16.817Z,7.27
2023-01-24T09:26:18.297Z,7.27
2023-01-24T09:27:19.798Z,7.29
2023-01-24T09:28:21.398Z,7.31
2023-01-24T09:29:22.876Z,7.31
2023-01-24T09:30:24.809Z,7.32
2023-01-24T09:31:26.575Z,7.28
2023-01-24T09:32:29.834Z,7.23
2023-01-24T09:33:31.342Z,7.21
2023-01-24T09:34:32.836Z,7.23
2023-01-24T09:35:34.380Z,7.26
2023-01-24T09:36:35.907Z,7.27
2023-01-24T09:37:37.688Z,7.29
2023-01-24T09:38:39.200Z,7.31
2023-01-24T09:39:40.704Z,7.31
2023-01-24T09:40:51.717Z,7.33
2023-01-24T09:42:12.584Z,7.34
2023-01-24T09:43:37.347Z,7.26
2023-01-24T09:44:57.794Z,7.28
2023-01-24T09:46:05.923Z,7.28
2023-01-24T09:47:16.547Z,7.31
2023-01-24T09:48:18.039Z,7.31
2023-01-24T09:49:36.846Z,7.32
2023-01-24T09:50:44.288Z,7.31
2023-01-24T09:51:50.270Z,7.29
2023-01-24T09:52:55.184Z,7.28
2023-01-24T09:53:57.975Z,7.28
2023-01-24T09:55:02.190Z,7.27
2023-01-24T09:56:05.217Z,7.27
2023-01-24T09:57:09.970Z,7.26
2023-01-24T09:58:33.137Z,7.29
2023-01-24T09:59:37.765Z,7.33
2023-01-24T10:00:39.481Z,7.33
2023-01-24T10:01:41.570Z,7.34
2023-01-24T10:02:43.631Z,7.36
2023-01-24T10:03:45.231Z,7.37
2023-01-24T10:04:46.876Z,7.36
2023-01-24T10:05:49.233Z,7.37
2023-01-24T10:06:54.741Z,7.37
2023-01-24T10:07:57.765Z,7.37
2023-01-24T10:09:08.970Z,7.30
2023-01-24T10:10:22.647Z,7.31
2023-01-24T10:11:42.885Z,7.29
2023-01-24T10:12:59.641Z,7.29
2023-01-24T10:14:06.980Z,7.30
2023-01-24T10:15:08.427Z,7.29
2023-01-24T10:16:28.772Z,7.31
2023-01-24T10:17:36.281Z,7.27
2023-01-24T10:18:40.836Z,7.26
2023-01-24T10:19:54.556Z,7.25
2023-01-24T10:21:10.974Z,7.21
2023-01-24T10:22:19.536Z,7.22
2023-01-24T10:23:27.395Z,7.22
2023-01-24T10:24:30.740Z,7.22
2023-01-24T10:25:34.396Z,7.22
2023-01-24T10:26:39.636Z,7.21
2023-01-24T10:27:42.233Z,7.20
2023-01-24T10:28:45.017Z,7.18
2023-01-24T10:29:46.516Z,7.15
2023-01-24T10:31:00.544Z,7.16
2023-01-24T10:32:03.833Z,7.14
2023-01-24T10:33:05.889Z,7.13
2023-01-24T10:34:15.725Z,7.10
2023-01-24T10:35:18.464Z,7.09
2023-01-24T10:36:39.098Z,7.09
2023-01-24T10:37:42.663Z,7.08
2023-01-24T10:38:44.327Z,7.11
2023-01-24T10:39:45.779Z,7.11
2023-01-24T10:40:54.951Z,7.08
2023-01-24T10:41:56.573Z,7.09
2023-01-24T10:42:58.048Z,7.08
2023-01-24T10:44:00.711Z,7.07
2023-01-24T10:45:04.502Z,7.08
2023-01-24T10:46:23.945Z,7.09
2023-01-24T10:47:33.380Z,7.12
2023-01-24T10:48:42.940Z,7.10
2023-01-24T10:49:44.847Z,7.09
2023-01-24T10:50:46.476Z,7.11
2023-01-24T10:52:08.207Z,7.11
2023-01-24T10:53:15.769Z,7.14
2023-01-24T10:54:27.145Z,7.14
2023-01-24T10:55:36.839Z,7.15
2023-01-24T10:56:41.131Z,7.16
2023-01-24T10:57:43.327Z,7.19
2023-01-24T10:58:54.824Z,7.23
2023-01-24T10:59:56.311Z,7.24
2023-01-24T11:00:58.984Z,7.22
2023-01-24T11:02:00.505Z,7.21
2023-01-24T11:03:03.048Z,7.25
2023-01-24T11:04:20.349Z,7.28
2023-01-24T11:05:23.354Z,7.30
2023-01-24T11:06:29.848Z,7.31
2023-01-24T11:07:34.738Z,7.31
2023-01-24T11:08:37.024Z,7.33
2023-01-24T11:09:40.548Z,7.32
2023-01-24T11:10:42.138Z,7.33
2023-01-24T11:11:44.745Z,7.35
2023-01-24T11:12:56.356Z,7.32
2023-01-24T11:13:58.139Z,7.32
2023-01-24T11:14:59.780Z,7.35
2023-01-24T11:16:08.517Z,7.38
2023-01-24T11:17:26.791Z,7.42
2023-01-24T11:18:31.088Z,7.42
2023-01-24T11:19:33.233Z,7.43
2023-01-24T11:20:35.479Z,7.43
2023-01-24T11:21:36.981Z,7.42
2023-01-24T11:22:38.462Z,7.42
2023-01-24T11:23:40.348Z,7.41
2023-01-24T11:24:45.072Z,7.43
2023-01-24T11:25:56.738Z,7.42
2023-01-24T11:27:14.438Z,7.43
2023-01-24T11:28:31.868Z,7.41
2023-01-24T11:29:34.091Z,7.42
2023-01-24T11:30:37.855Z,7.42
2023-01-24T11:31:39.971Z,7.42
2023-01-24T11:32:47.667Z,7.41
2023-01-24T11:33:59.374Z,7.43
2023-01-24T11:35:04.543Z,7.42
2023-01-24T11:36:09.935Z,7.44
2023-01-24T11:37:30.289Z,7.42
2023-01-24T11:38:36.292Z,7.42
2023-01-24T11:39:46.574Z,7.41
2023-01-24T11:40:51.154Z,7.41
2023-01-24T11:41:57.753Z,7.41
2023-01-24T11:43:05.262Z,7.40
2023-01-24T11:44:09.660Z,7.41
2023-01-24T11:45:17.816Z,7.42
2023-01-24T11:46:22.883Z,7.37
2023-01-24T11:47:26.080Z,7.37
2023-01-24T11:48:40.188Z,7.38
2023-01-24T11:50:03.373Z,7.37
2023-01-24T11:51:15.543Z,7.36
2023-01-24T11:52:35.810Z,7.38
2023-01-24T11:53:37.341Z,7.40
2023-01-24T11:54:46.512Z,7.42
2023-01-24T11:56:10.175Z,7.36
2023-01-24T11:57:11.719Z,7.34
2023-01-24T11:58:13.196Z,7.34
2023-01-24T11:59:21.582Z,7.40
2023-01-24T12:00:36.069Z,7.37
2023-01-24T12:01:44.640Z,7.35
2023-01-24T12:03:04.705Z,7.38
2023-01-24T12:04:18.118Z,7.42
2023-01-24T12:05:37.845Z,7.45
2023-01-24T12:06:51.259Z,7.47
2023-01-24T12:08:21.894Z,7.47
2023-01-24T12:09:23.659Z,7.42
2023-01-24T12:10:43.824Z,7.43
2023-01-24T12:11:48.129Z,7.45
2023-01-24T12:12:55.721Z,7.48
2023-01-24T12:13:57.752Z,7.48
2023-01-24T12:15:18.042Z,7.49
2023-01-24T12:16:19.671Z,7.51
2023-01-24T12:17:46.444Z,7.49
2023-01-24T12:18:56.632Z,7.52
2023-01-24T12:20:30.120Z,7.53
2023-01-24T12:21:32.948Z,7.57
2023-01-24T12:22:34.389Z,7.61
2023-01-24T12:23:44.944Z,7.59
2023-01-24T12:24:47.617Z,7.60
2023-01-24T12:25:49.617Z,7.61
2023-01-24T12:26:51.794Z,7.62
2023-01-24T12:27:54.792Z,7.62
2023-01-24T12:29:15.226Z,7.59
2023-01-24T12:30:23.148Z,7.60
2023-01-24T12:31:29.764Z,7.63
2023-01-24T12:32:45.519Z,7.62
2023-01-24T12:33:48.752Z,7.62
2023-01-24T12:34:52.072Z,7.62
2023-01-24T12:35:57.441Z,7.64
2023-01-24T12:37:03.596Z,7.65
2023-01-24T12:38:23.600Z,7.67
2023-01-24T12:39:27.192Z,7.69
2023-01-24T12:40:47.178Z,7.68
2023-01-24T12:41:51.885Z,7.70
2023-01-24T12:42:56.670Z,7.70
2023-01-24T12:44:16.990Z,7.68
2023-01-24T12:45:22.627Z,7.70
2023-01-24T12:46:50.770Z,7.71
2023-01-24T12:47:57.001Z,7.72
2023-01-24T12:49:07.421Z,7.68
2023-01-24T12:50:15.611Z,7.71
2023-01-24T12:51:23.337Z,7.71
2023-01-24T12:52:40.183Z,7.70
2023-01-24T12:54:04.720Z,7.72
2023-01-24T12:55:16.476Z,7.71
2023-01-24T12:56:17.984Z,7.71
2023-01-24T12:57:27.537Z,7.73
2023-01-24T12:58:30.437Z,7.74
2023-01-24T12:59:34.545Z,7.75
2023-01-24T13:00:41.778Z,7.68
2023-01-24T13:01:43.334Z,7.66
2023-01-24T13:02:44.876Z,7.67
2023-01-24T13:03:46.366Z,7.63
2023-01-24T13:04:56.604Z,7.64
2023-01-24T13:06:10.695Z,7.66
2023-01-24T13:07:21.172Z,7.68
2023-01-24T13:08:31.885Z,7.68
2023-01-24T13:09:39.530Z,7.68
2023-01-24T13:10:44.230Z,7.70
2023-01-24T13:11:48.647Z,7.67
2023-01-24T13:12:50.188Z,7.65
2023-01-24T13:14:10.213Z,7.66
2023-01-24T13:15:15.691Z,7.67
2023-01-24T13:16:29.675Z,7.68
2023-01-24T13:17:40.341Z,7.71
2023-01-24T13:19:02.189Z,7.61
2023-01-24T13:20:03.760Z,7.62
2023-01-24T13:21:08.234Z,7.62
2023-01-24T13:22:29.455Z,7.63
2023-01-24T13:23:36.796Z,7.65
2023-01-24T13:25:07.748Z,7.67
2023-01-24T13:26:27.637Z,7.71
2023-01-24T13:27:37.753Z,7.73
2023-01-24T13:28:57.904Z,7.76
2023-01-24T13:30:02.186Z,7.78
2023-01-24T13:31:12.597Z,7.81
2023-01-24T13:32:14.583Z,7.82
2023-01-24T13:33:21.081Z,7.78
2023-01-24T13:34:24.288Z,7.78
2023-01-24T13:35:25.944Z,7.76
2023-01-24T13:36:29.740Z,7.74
2023-01-24T13:37:32.480Z,7.77
2023-01-24T13:38:40.740Z,7.77
2023-01-24T13:39:43.247Z,7.80
2023-01-24T13:41:03.810Z,7.80
2023-01-24T13:42:06.600Z,7.81
2023-01-24T13:43:28.024Z,7.82
2023-01-24T13:44:31.046Z,7.84
2023-01-24T13:45:50.853Z,7.82
2023-01-24T13:46:59.113Z,7.85
2023-01-24T13:48:00.912Z,7.82
2023-01-24T13:49:02.441Z,7.83
2023-01-24T13:50:11.353Z,7.83
2023-01-24T13:51:15.771Z,7.85
2023-01-24T13:52:32.580Z,7.82
2023-01-24T13:53:57.162Z,7.82
2023-01-24T13:55:01.609Z,7.81
2023-01-24T13:56:03.822Z,7.79
2023-01-24T13:57:08.262Z,7.82
2023-01-24T13:58:10.506Z,7.79
2023-01-24T13:59:13.507Z,7.80
2023-01-24T14:00:16.861Z,7.83
2023-01-24T14:01:19.638Z,7.84
2023-01-24T14:02:44.641Z,7.86
2023-01-24T14:03:53.725Z,7.84
2023-01-24T14:04:55.188Z,7.77
2023-01-24T14:05:59.036Z,7.79
2023-01-24T14:07:00.544Z,7.79
2023-01-24T14:08:15.116Z,7.81
2023-01-24T14:09:22.425Z,7.77
2023-01-24T14:10:34.473Z,7.74
2023-01-24T14:11:36.515Z,7.75
2023-01-24T14:12:38.800Z,7.75
2023-01-24T14:13:49.348Z,7.77
2023-01-24T14:15:06.251Z,7.78
2023-01-24T14:16:14.249Z,7.80
2023-01-24T14:17:29.024Z,7.80
2023-01-24T14:18:49.266Z,7.78
2023-01-24T14:19:50.797Z,7.80
2023-01-24T14:20:52.289Z,7.81
2023-01-24T14:22:11.680Z,7.78
2023-01-24T14:23:14.459Z,7.74
2023-01-24T14:24:24.973Z,7.73
2023-01-24T14:25:38.798Z,7.71
2023-01-24T14:26:40.307Z,7.75
2023-01-24T14:28:00.945Z,7.74
2023-01-24T14:29:03.257Z,7.69
2023-01-24T14:30:16.778Z,7.64
2023-01-24T14:31:25.469Z,7.67
2023-01-24T14:32:29.973Z,7.67
2023-01-24T14:33:50.245Z,7.66